createdAt,value
2023-04-19T00:00:10.508Z,102843.09
2023-04-19T00:02:42.800Z,102808.47
2023-04-19T00:05:14.456Z,102839.75
2023-04-19T00:07:42.600Z,102834.38
2023-04-19T00:10:13.952Z,102834.09
2023-04-19T00:12:43.405Z,102803.56
2023-04-19T00:15:15.475Z,102829.50
2023-04-19T00:17:43.664Z,102824.56
2023-04-19T00:20:12.998Z,102793.66
2023-04-19T00:22:47.975Z,102825.06
2023-04-19T00:25:18.757Z,102824.00
2023-04-19T00:27:50.393Z,102768.59
2023-04-19T00:30:18.491Z,102819.75
2023-04-19T00:32:49.717Z,102803.25
2023-04-19T00:35:18.396Z,102822.97
2023-04-19T00:37:50.765Z,102817.31
2023-04-19T00:40:21.212Z,102817.19
2023-04-19T00:42:50.855Z,102813.53
2023-04-19T00:45:24.354Z,102815.63
2023-04-19T00:47:53.208Z,102799.56
2023-04-19T00:50:21.980Z,102815.47
2023-04-19T00:52:53.703Z,102811.81
2023-04-19T00:55:26.851Z,102812.66
2023-04-19T00:57:56.370Z,102815.00
2023-04-19T01:00:24.530Z,102808.19
2023-04-19T01:02:54.827Z,102813.44
2023-04-19T01:05:23.425Z,102810.28
2023-04-19T01:07:56.129Z,102781.13
2023-04-19T01:10:26.977Z,102804.91
2023-04-19T01:13:05.535Z,102802.38
2023-04-19T01:15:36.781Z,102791.38
2023-04-19T01:18:08.068Z,102802.75
2023-04-19T01:20:36.242Z,102790.34
2023-04-19T01:23:12.518Z,102797.00
2023-04-19T01:25:44.701Z,102783.56
2023-04-19T01:28:20.482Z,102790.19
2023-04-19T01:30:53.797Z,102799.78
2023-04-19T01:33:23.326Z,102799.91
2023-04-19T01:35:51.564Z,102770.69
2023-04-19T01:38:23.207Z,102769.09
2023-04-19T01:40:56.762Z,102798.75
2023-04-19T01:43:26.164Z,102802.19
2023-04-19T01:45:59.842Z,102764.84
2023-04-19T01:48:31.775Z,102800.06
2023-04-19T01:51:03.596Z,102771.59
2023-04-19T01:53:33.133Z,102799.19
2023-04-19T01:56:13.212Z,102799.94
2023-04-19T01:58:43.517Z,102801.13
2023-04-19T02:01:17.861Z,102789.03
2023-04-19T02:03:46.582Z,102788.97
2023-04-19T02:06:19.668Z,102788.81
2023-04-19T02:08:50.855Z,102786.91
2023-04-19T02:11:19.375Z,102783.28
2023-04-19T02:13:48.453Z,102789.00
2023-04-19T02:16:19.816Z,102786.75
2023-04-19T02:18:53.733Z,102782.59
2023-04-19T02:21:23.796Z,102781.09
2023-04-19T02:23:54.776Z,102759.91
2023-04-19T02:26:24.580Z,102769.13
2023-04-19T02:28:57.661Z,102789.34
2023-04-19T02:31:34.162Z,102728.41
2023-04-19T02:34:02.350Z,102749.69
2023-04-19T02:36:33.250Z,102787.81
2023-04-19T02:39:12.525Z,102792.09
2023-04-19T02:41:43.381Z,102787.81
2023-04-19T02:44:13.753Z,102772.38
2023-04-19T02:46:41.956Z,102786.34
2023-04-19T02:49:12.579Z,102758.72
2023-04-19T02:51:49.065Z,102789.47
2023-04-19T02:54:28.045Z,102755.34
2023-04-19T02:56:58.328Z,102780.94
2023-04-19T02:59:37.943Z,102789.91
2023-04-19T03:02:10.918Z,102777.34
2023-04-19T03:04:39.148Z,102789.53
2023-04-19T03:07:08.018Z,102792.78
2023-04-19T03:09:41.441Z,102784.28
2023-04-19T03:12:09.970Z,102774.84
2023-04-19T03:14:40.966Z,102777.81
2023-04-19T03:17:13.931Z,102790.91
2023-04-19T03:19:45.076Z,102754.88
2023-04-19T03:22:22.051Z,102789.22
2023-04-19T03:24:51.575Z,102778.97
2023-04-19T03:27:23.749Z,102767.03
2023-04-19T03:30:02.757Z,102782.69
2023-04-19T03:32:39.192Z,102751.25
2023-04-19T03:35:11.582Z,102779.81
2023-04-19T03:37:43.527Z,102732.06
2023-04-19T03:40:16.729Z,102774.47
2023-04-19T03:42:49.482Z,102775.75
2023-04-19T03:45:32.128Z,102717.78
2023-04-19T03:48:03.110Z,102769.56
2023-04-19T03:50:34.916Z,102771.34
2023-04-19T03:53:06.697Z,102772.63
2023-04-19T03:55:37.049Z,102775.94
2023-04-19T03:58:08.186Z,102737.72
2023-04-19T04:00:56.113Z,102752.53
2023-04-19T04:03:27.484Z,102777.53
2023-04-19T04:05:58.206Z,102776.72
2023-04-19T04:08:27.670Z,102744.53
2023-04-19T04:11:08.389Z,102781.66
2023-04-19T04:13:38.223Z,102779.50
2023-04-19T04:16:29.529Z,102774.91
2023-04-19T04:19:02.083Z,102774.03
2023-04-19T04:21:40.288Z,102776.72
2023-04-19T04:24:09.815Z,102760.09
2023-04-19T04:26:51.969Z,102771.53
2023-04-19T04:29:33.516Z,102738.50
2023-04-19T04:32:04.231Z,102780.81
2023-04-19T04:34:42.928Z,102761.28
2023-04-19T04:37:19.069Z,102788.91
2023-04-19T04:39:50.787Z,102786.03
2023-04-19T04:42:24.661Z,102789.25
2023-04-19T04:44:55.577Z,102777.22
2023-04-19T04:47:33.330Z,102794.06
2023-04-19T04:50:05.084Z,102799.63
2023-04-19T04:52:35.718Z,102802.69
2023-04-19T04:55:14.586Z,102795.75
2023-04-19T04:57:48.940Z,102808.97
2023-04-19T05:00:26.515Z,102809.78
2023-04-19T05:03:04.874Z,102804.47
2023-04-19T05:05:37.608Z,102801.75
2023-04-19T05:08:06.318Z,102806.88
2023-04-19T05:10:36.819Z,102813.72
2023-04-19T05:13:06.329Z,102794.06
2023-04-19T05:15:37.377Z,102803.28
2023-04-19T05:18:08.519Z,102797.53
2023-04-19T05:20:36.875Z,102792.63
2023-04-19T05:23:18.685Z,102811.00
2023-04-19T05:25:50.874Z,102808.50
2023-04-19T05:28:22.992Z,102816.22
2023-04-19T05:31:12.382Z,102808.97
2023-04-19T05:33:48.686Z,102803.44
2023-04-19T05:36:16.808Z,102818.81
2023-04-19T05:38:46.563Z,102819.16
2023-04-19T05:41:17.453Z,102820.09
2023-04-19T05:43:52.062Z,102816.16
2023-04-19T05:46:21.222Z,102813.69
2023-04-19T05:48:55.147Z,102792.00
2023-04-19T05:51:49.182Z,102811.47
2023-04-19T05:54:35.976Z,102811.13
2023-04-19T05:57:05.604Z,102809.31
2023-04-19T05:59:35.151Z,102811.97
2023-04-19T06:02:05.881Z,102779.91
2023-04-19T06:04:34.390Z,102784.31
2023-04-19T06:07:06.216Z,102821.38
2023-04-19T06:09:42.330Z,102823.22
2023-04-19T06:12:14.129Z,102824.88
2023-04-19T06:14:43.627Z,102826.69
2023-04-19T06:17:11.938Z,102831.63
2023-04-19T06:19:42.410Z,102821.50
2023-04-19T06:22:13.525Z,102826.91
2023-04-19T06:24:43.780Z,102817.22
2023-04-19T06:27:11.953Z,102824.94
2023-04-19T06:29:40.062Z,102831.63
2023-04-19T06:32:10.537Z,102829.91
2023-04-19T06:34:43.082Z,102824.41
2023-04-19T06:37:14.246Z,102828.44
2023-04-19T06:39:42.429Z,102825.72
2023-04-19T06:42:10.892Z,102819.59
2023-04-19T06:44:42.150Z,102821.25
2023-04-19T06:47:12.813Z,102822.31
2023-04-19T06:49:41.027Z,102813.59
2023-04-19T06:52:09.301Z,102814.13
2023-04-19T06:54:40.856Z,102810.00
2023-04-19T06:57:09.023Z,102813.75
2023-04-19T06:59:39.792Z,102806.69
2023-04-19T07:02:12.514Z,102808.78
2023-04-19T07:04:40.932Z,102814.53
2023-04-19T07:07:09.195Z,102803.28
2023-04-19T07:09:39.355Z,102815.78
2023-04-19T07:12:07.950Z,102795.75
2023-04-19T07:14:36.183Z,102814.09
2023-04-19T07:17:06.096Z,102780.19
2023-04-19T07:19:36.545Z,102797.69
2023-04-19T07:22:06.214Z,102788.31
2023-04-19T07:24:40.287Z,102811.44
2023-04-19T07:27:08.535Z,102797.22
2023-04-19T07:29:36.708Z,102812.34
2023-04-19T07:32:08.860Z,102807.22
2023-04-19T07:34:42.588Z,102801.47
2023-04-19T07:37:13.083Z,102808.72
2023-04-19T07:39:41.482Z,102771.47
2023-04-19T07:42:09.677Z,102784.91
2023-04-19T07:44:45.098Z,102802.53
2023-04-19T07:47:16.147Z,102801.72
2023-04-19T07:49:45.674Z,102806.38
2023-04-19T07:52:13.843Z,102800.28
2023-04-19T07:54:42.169Z,102797.94
2023-04-19T07:57:10.293Z,102803.78
2023-04-19T07:59:38.467Z,102795.38
2023-04-19T08:02:08.921Z,102776.38
2023-04-19T08:04:37.964Z,102764.38
2023-04-19T08:07:10.301Z,102797.59
2023-04-19T08:09:43.428Z,102791.00
2023-04-19T08:12:26.268Z,102795.91
2023-04-19T08:15:15.500Z,102798.56
2023-04-19T08:17:52.487Z,102776.97
2023-04-19T08:20:21.662Z,102787.84
2023-04-19T08:22:51.328Z,102794.28
2023-04-19T08:25:19.796Z,102777.66
2023-04-19T08:27:49.738Z,102768.81
2023-04-19T08:30:21.256Z,102784.38
2023-04-19T08:32:49.527Z,102792.56
2023-04-19T08:35:18.292Z,102760.34
2023-04-19T08:37:50.009Z,102791.22
2023-04-19T08:40:21.480Z,102783.69
2023-04-19T08:42:49.674Z,102786.00
2023-04-19T08:45:27.051Z,102740.47
2023-04-19T08:48:01.384Z,102778.19
2023-04-19T08:50:37.138Z,102780.69
2023-04-19T08:53:23.704Z,102781.84
2023-04-19T08:56:12.728Z,102776.56
2023-04-19T08:59:03.938Z,102775.66
2023-04-19T09:01:35.869Z,102760.66
2023-04-19T09:04:26.252Z,102765.16
2023-04-19T09:06:56.777Z,102766.88
2023-04-19T09:12:00.302Z,102782.44
2023-04-19T09:14:29.756Z,102775.44
2023-04-19T09:17:17.456Z,102776.78
2023-04-19T09:19:50.474Z,102763.72
2023-04-19T09:22:19.433Z,102728.22
2023-04-19T09:27:29.145Z,102763.38
2023-04-19T09:29:58.883Z,102739.38
2023-04-19T09:32:28.089Z,102771.56
2023-04-19T09:34:57.942Z,102758.81
2023-04-19T09:40:01.372Z,102767.63
2023-04-19T09:45:30.137Z,102765.78
2023-04-19T09:48:04.311Z,102749.84
2023-04-19T09:50:34.023Z,102766.41
2023-04-19T09:53:07.729Z,102766.28
2023-04-19T09:55:48.961Z,102725.44
2023-04-19T09:58:34.400Z,102766.13
2023-04-19T10:01:15.509Z,102758.81
2023-04-19T10:03:46.868Z,102762.59
2023-04-19T10:06:40.065Z,102766.00
2023-04-19T10:09:06.792Z,102744.47
2023-04-19T10:11:40.105Z,102751.19
2023-04-19T10:14:12.676Z,102760.06
2023-04-19T10:16:40.935Z,102762.75
2023-04-19T10:19:14.827Z,102752.41
2023-04-19T10:21:46.654Z,102750.88
2023-04-19T10:24:15.863Z,102728.53
2023-04-19T10:27:12.478Z,102747.81
2023-04-19T10:30:04.593Z,102748.44
2023-04-19T10:32:41.034Z,102736.53
2023-04-19T10:35:11.618Z,102751.50
2023-04-19T10:38:02.735Z,102754.41
2023-04-19T10:41:05.462Z,102724.53
2023-04-19T10:43:35.328Z,102714.13
2023-04-19T10:46:09.212Z,102727.13
2023-04-19T10:48:44.288Z,102745.91
2023-04-19T10:51:19.219Z,102748.19
2023-04-19T10:53:57.513Z,102738.16
2023-04-19T10:57:02.317Z,102705.16
2023-04-19T10:59:34.898Z,102716.09
2023-04-19T11:02:06.336Z,102721.19
2023-04-19T11:05:03.698Z,102739.81
2023-04-19T11:07:41.018Z,102724.81
2023-04-19T11:10:11.827Z,102735.59
2023-04-19T11:12:45.141Z,102730.38
2023-04-19T11:15:13.349Z,102728.34
2023-04-19T11:17:43.125Z,102705.13
2023-04-19T11:20:14.547Z,102728.16
2023-04-19T11:22:45.578Z,102716.88
2023-04-19T11:25:16.711Z,102715.50
2023-04-19T11:27:46.811Z,102730.00
2023-04-19T11:30:19.742Z,102702.97
2023-04-19T11:32:50.865Z,102707.75
2023-04-19T11:35:22.183Z,102716.03
2023-04-19T11:37:51.685Z,102673.41
2023-04-19T11:40:22.176Z,102687.44
2023-04-19T11:42:56.622Z,102694.72
2023-04-19T11:45:33.006Z,102681.38
2023-04-19T11:48:07.369Z,102685.59
2023-04-19T11:50:38.928Z,102696.09
2023-04-19T11:53:19.125Z,102703.06
2023-04-19T11:55:48.618Z,102695.84
2023-04-19T11:58:31.957Z,102684.56
2023-04-19T12:01:06.714Z,102659.56
2023-04-19T12:03:41.890Z,102684.88
2023-04-19T12:06:14.504Z,102659.53
2023-04-19T12:08:47.087Z,102655.69
2023-04-19T12:11:16.913Z,102657.69
2023-04-19T12:13:45.373Z,102647.56
2023-04-19T12:16:14.932Z,102643.66
2023-04-19T12:18:50.579Z,102646.38
2023-04-19T12:21:30.800Z,102667.84
2023-04-19T12:24:44.458Z,102664.28
2023-04-19T12:27:53.012Z,102653.13
2023-04-19T12:30:21.339Z,102641.63
2023-04-19T12:32:51.499Z,102666.09
2023-04-19T12:35:19.888Z,102663.72
2023-04-19T12:37:47.950Z,102665.75
2023-04-19T12:40:16.985Z,102640.56
2023-04-19T12:42:45.335Z,102653.94
2023-04-19T12:45:21.898Z,102657.81
2023-04-19T12:47:50.890Z,102655.97
2023-04-19T12:50:19.101Z,102642.75
2023-04-19T12:52:47.374Z,102635.47
2023-04-19T12:55:15.706Z,102646.31
2023-04-19T12:57:44.110Z,102646.75
2023-04-19T13:00:14.960Z,102647.38
2023-04-19T13:02:43.229Z,102615.66
2023-04-19T13:05:12.917Z,102633.69
2023-04-19T13:07:41.641Z,102625.88
2023-04-19T13:10:10.980Z,102626.28
2023-04-19T13:12:39.316Z,102599.78
2023-04-19T13:15:09.693Z,102608.00
2023-04-19T13:17:39.384Z,102613.69
2023-04-19T13:20:09.699Z,102609.28
2023-04-19T13:22:37.915Z,102598.59
2023-04-19T13:25:06.971Z,102596.69
2023-04-19T13:27:35.324Z,102577.50
2023-04-19T13:30:03.798Z,102598.31
2023-04-19T13:32:32.046Z,102570.81
2023-04-19T13:35:01.517Z,102589.84
2023-04-19T13:37:30.198Z,102579.97
2023-04-19T13:40:10.738Z,102536.94
2023-04-19T13:42:45.983Z,102570.50
2023-04-19T13:45:14.553Z,102552.16
2023-04-19T13:47:42.719Z,102561.91
2023-04-19T13:50:13.016Z,102562.50
2023-04-19T13:52:41.329Z,102542.09
2023-04-19T13:55:10.511Z,102543.91
2023-04-19T13:57:38.900Z,102548.41
2023-04-19T14:00:09.181Z,102520.88
2023-04-19T14:02:37.723Z,102549.16
2023-04-19T14:05:07.108Z,102527.00
2023-04-19T14:07:36.875Z,102540.09
2023-04-19T14:10:07.903Z,102518.91
2023-04-19T14:12:36.469Z,102537.34
2023-04-19T14:15:05.674Z,102534.09
2023-04-19T14:17:35.982Z,102535.59
2023-04-19T14:20:07.164Z,102529.16
2023-04-19T14:22:37.133Z,102516.59
2023-04-19T14:25:06.412Z,102516.50
2023-04-19T14:27:34.848Z,102474.31
2023-04-19T14:30:03.285Z,102502.38
2023-04-19T14:32:31.709Z,102506.03
2023-04-19T14:35:00.582Z,102485.09
2023-04-19T14:37:28.896Z,102485.91
2023-04-19T14:39:58.784Z,102501.72
2023-04-19T14:42:26.997Z,102490.03
2023-04-19T14:44:55.265Z,102489.09
2023-04-19T14:47:23.438Z,102486.59
2023-04-19T14:49:51.644Z,102488.47
2023-04-19T14:52:19.841Z,102484.06
2023-04-19T14:54:48.190Z,102486.78
2023-04-19T14:57:17.580Z,102484.22
2023-04-19T14:59:45.651Z,102471.88
2023-04-19T15:02:14.226Z,102471.72
2023-04-19T15:04:42.789Z,102470.59
2023-04-19T15:07:11.350Z,102461.63
2023-04-19T15:09:40.410Z,102453.66
2023-04-19T15:12:08.687Z,102459.00
2023-04-19T15:14:39.227Z,102460.00
2023-04-19T15:17:07.424Z,102453.00
2023-04-19T15:19:35.508Z,102450.31
2023-04-19T15:22:04.947Z,102450.09
2023-04-19T15:24:35.282Z,102446.09
2023-04-19T15:27:04.079Z,102444.28
2023-04-19T15:29:32.264Z,102416.00
2023-04-19T15:32:02.640Z,102438.88
2023-04-19T15:34:30.784Z,102428.75
2023-04-19T15:36:58.951Z,102438.31
2023-04-19T15:39:27.092Z,102428.59
2023-04-19T15:41:55.256Z,102430.19
2023-04-19T15:44:23.374Z,102433.28
2023-04-19T15:46:51.623Z,102437.19
2023-04-19T15:49:21.104Z,102435.50
2023-04-19T15:51:49.116Z,102430.91
2023-04-19T15:54:17.252Z,102424.50
2023-04-19T15:56:45.472Z,102419.72
2023-04-19T15:59:13.545Z,102392.84
2023-04-19T16:01:41.858Z,102413.97
2023-04-19T16:04:10.203Z,102415.94
2023-04-19T16:06:39.759Z,102410.91
2023-04-19T16:09:08.303Z,102417.47
2023-04-19T16:11:36.671Z,102415.94
2023-04-19T16:14:04.841Z,102411.00
2023-04-19T16:16:34.370Z,102396.22
2023-04-19T16:19:02.656Z,102379.06
2023-04-19T16:21:30.863Z,102413.09
2023-04-19T16:24:00.892Z,102419.63
2023-04-19T16:26:29.014Z,102410.50
2023-04-19T16:28:57.175Z,102386.66
2023-04-19T16:31:25.515Z,102408.47
2023-04-19T16:33:53.651Z,102402.94
2023-04-19T16:36:21.747Z,102403.75
2023-04-19T16:38:49.828Z,102401.78
2023-04-19T16:41:19.218Z,102392.13
2023-04-19T16:43:47.345Z,102401.44
2023-04-19T16:46:15.566Z,102367.84
2023-04-19T16:48:43.914Z,102393.16
2023-04-19T16:51:12.089Z,102402.78
2023-04-19T16:53:40.217Z,102398.94
2023-04-19T16:56:08.888Z,102396.41
2023-04-19T16:58:38.579Z,102387.84
2023-04-19T17:01:08.937Z,102396.25
2023-04-19T17:03:37.267Z,102395.25
2023-04-19T17:06:06.267Z,102347.22
2023-04-19T17:08:34.795Z,102365.75
2023-04-19T17:11:03.009Z,102355.06
2023-04-19T17:13:31.127Z,102367.72
2023-04-19T17:16:00.795Z,102387.94
2023-04-19T17:18:28.920Z,102376.47
2023-04-19T17:20:57.056Z,102381.31
2023-04-19T17:23:25.235Z,102371.34
2023-04-19T17:25:53.346Z,102381.94
2023-04-19T17:28:21.480Z,102360.50
2023-04-19T17:30:49.732Z,102372.38
2023-04-19T17:33:19.235Z,102367.25
2023-04-19T17:35:47.560Z,102378.75
2023-04-19T17:38:15.847Z,102379.94
2023-04-19T17:40:45.083Z,102352.03
2023-04-19T17:43:13.815Z,102382.66
2023-04-19T17:45:41.875Z,102380.16
2023-04-19T17:48:10.006Z,102377.78
2023-04-19T17:50:39.807Z,102377.44
2023-04-19T17:53:08.069Z,102374.72
2023-04-19T17:55:36.383Z,102370.16
2023-04-19T17:58:04.638Z,102377.72
2023-04-19T18:00:32.691Z,102379.94
2023-04-19T18:03:01.081Z,102369.91
2023-04-19T18:05:29.463Z,102379.97
2023-04-19T18:07:59.388Z,102380.59
2023-04-19T18:10:27.870Z,102380.22
2023-04-19T18:12:55.945Z,102379.50
2023-04-19T18:15:24.135Z,102381.94
2023-04-19T18:17:52.541Z,102372.09
2023-04-19T18:20:21.499Z,102388.59
2023-04-19T18:22:50.668Z,102368.56
2023-04-19T18:25:20.302Z,102395.66
2023-04-19T18:27:49.271Z,102360.78
2023-04-19T18:30:17.743Z,102360.34
2023-04-19T18:32:45.920Z,102374.16
2023-04-19T18:35:14.281Z,102396.84
2023-04-19T18:37:42.738Z,102406.84
2023-04-19T18:40:12.407Z,102408.88
2023-04-19T18:42:41.828Z,102403.38
2023-04-19T18:45:14.419Z,102395.59
2023-04-19T18:47:42.583Z,102401.91
2023-04-19T18:50:11.993Z,102415.13
2023-04-19T18:52:40.455Z,102380.44
2023-04-19T18:55:11.457Z,102426.53
2023-04-19T18:57:41.063Z,102424.22
2023-04-19T19:00:11.115Z,102403.53
2023-04-19T19:02:40.848Z,102428.84
2023-04-19T19:05:13.707Z,102368.34
2023-04-19T19:07:42.352Z,102427.31
2023-04-19T19:12:44.156Z,102413.81
2023-04-19T19:15:14.330Z,102429.47
2023-04-19T19:17:49.327Z,102438.44
2023-04-19T19:20:20.999Z,102436.13
2023-04-19T19:22:49.299Z,102408.72
2023-04-19T19:25:17.595Z,102394.88
2023-04-19T19:28:06.157Z,102430.06
2023-04-19T19:30:39.860Z,102438.41
2023-04-19T19:33:08.282Z,102445.81
2023-04-19T19:35:36.667Z,102431.13
2023-04-19T19:38:05.166Z,102453.09
2023-04-19T19:40:33.290Z,102451.25
2023-04-19T19:43:03.257Z,102454.03
2023-04-19T19:45:32.556Z,102416.97
2023-04-19T19:48:01.201Z,102455.78
2023-04-19T19:53:02.533Z,102458.06
2023-04-19T19:55:30.980Z,102462.44
2023-04-19T20:00:45.108Z,102466.59
2023-04-19T20:03:24.732Z,102473.19
2023-04-19T20:06:05.529Z,102454.84
2023-04-19T20:08:47.731Z,102477.22
2023-04-19T20:11:16.394Z,102481.47
2023-04-19T20:13:44.568Z,102475.28
2023-04-19T20:16:14.690Z,102480.44
2023-04-19T20:18:43.970Z,102442.25
2023-04-19T20:21:12.113Z,102432.28
2023-04-19T20:23:40.770Z,102489.22
2023-04-19T20:26:08.976Z,102479.41
2023-04-19T20:28:37.225Z,102492.72
2023-04-19T20:31:05.499Z,102488.59
2023-04-19T20:33:35.163Z,102480.19
2023-04-19T20:36:03.804Z,102495.19
2023-04-19T20:38:34.590Z,102485.53
2023-04-19T20:41:03.225Z,102499.13
2023-04-19T20:43:31.691Z,102482.31
2023-04-19T20:45:59.874Z,102494.31
2023-04-19T20:48:28.159Z,102501.47
2023-04-19T20:50:57.677Z,102497.94
2023-04-19T20:53:25.778Z,102506.13
2023-04-19T20:55:53.845Z,102496.09
2023-04-19T20:58:22.136Z,102498.88
2023-04-19T21:00:50.940Z,102504.50
2023-04-19T21:03:19.245Z,102476.97
2023-04-19T21:05:47.416Z,102512.03
2023-04-19T21:08:18.700Z,102509.66
2023-04-19T21:10:49.255Z,102509.81
2023-04-19T21:13:17.388Z,102505.75
2023-04-19T21:15:45.492Z,102488.06
2023-04-19T21:18:13.598Z,102517.38
2023-04-19T21:20:41.666Z,102514.56
2023-04-19T21:23:10.083Z,102494.59
2023-04-19T21:25:39.556Z,102509.19
2023-04-19T21:28:09.623Z,102480.13
2023-04-19T21:30:40.688Z,102511.19
2023-04-19T21:33:09.062Z,102510.66
2023-04-19T21:35:37.238Z,102498.13
2023-04-19T21:38:05.516Z,102511.22
2023-04-19T21:40:33.629Z,102502.50
2023-04-19T21:43:03.051Z,102497.22
2023-04-19T21:45:31.479Z,102502.31
2023-04-19T21:47:59.545Z,102511.06
2023-04-19T21:50:27.800Z,102513.22
2023-04-19T21:52:55.874Z,102511.31
2023-04-19T21:55:26.655Z,102518.34
2023-04-19T21:57:54.753Z,102513.22
2023-04-19T22:00:24.354Z,102513.78
2023-04-19T22:02:52.804Z,102519.41
2023-04-19T22:05:21.108Z,102451.16
2023-04-19T22:07:49.306Z,102490.38
2023-04-19T22:10:17.439Z,102496.63
2023-04-19T22:12:55.523Z,102506.38
2023-04-19T22:15:27.888Z,102507.78
2023-04-19T22:17:57.442Z,102479.94
2023-04-19T22:20:25.954Z,102487.41
2023-04-19T22:22:54.176Z,102512.00
2023-04-19T22:25:22.704Z,102480.56
2023-04-19T22:27:50.964Z,102439.59
2023-04-19T22:30:19.029Z,102493.91
2023-04-19T22:32:52.004Z,102450.31
2023-04-19T22:35:22.501Z,102513.56
2023-04-19T22:37:51.879Z,102503.97
2023-04-19T22:40:21.909Z,102512.59
2023-04-19T22:42:50.028Z,102510.97
2023-04-19T22:45:18.499Z,102506.47
2023-04-19T22:47:48.039Z,102509.03
2023-04-19T22:50:16.431Z,102502.00
2023-04-19T22:52:44.581Z,102494.63
2023-04-19T22:55:12.925Z,102494.28
2023-04-19T22:57:41.425Z,102511.44
2023-04-19T23:00:11.587Z,102506.22
2023-04-19T23:02:40.464Z,102451.94
2023-04-19T23:05:11.270Z,102492.03
2023-04-19T23:07:41.872Z,102491.34
2023-04-19T23:10:12.322Z,102495.91
2023-04-19T23:12:40.609Z,102489.16
2023-04-19T23:15:11.004Z,102485.81
2023-04-19T23:17:40.323Z,102487.13
2023-04-19T23:20:11.871Z,102483.06
2023-04-19T23:22:40.353Z,102486.84
2023-04-19T23:25:10.298Z,102481.91
2023-04-19T23:27:38.461Z,102480.47
2023-04-19T23:30:08.934Z,102469.81
2023-04-19T23:32:37.145Z,102478.34
2023-04-19T23:35:06.097Z,102477.59
2023-04-19T23:37:36.648Z,102477.59
2023-04-19T23:40:06.144Z,102458.44
2023-04-19T23:42:34.522Z,102434.69
2023-04-19T23:45:04.354Z,102468.34
2023-04-19T23:47:33.539Z,102472.09
2023-04-19T23:50:01.738Z,102472.78
2023-04-19T23:52:29.870Z,102474.81
2023-04-19T23:54:59.291Z,102456.13
2023-04-19T23:57:27.396Z,102466.09
2023-04-19T23:59:55.753Z,102467.41
